Time;durP1;ratioP1;P1;durP2;ratioP2;P2;SDS_P1;SDS_P2;PMS_P1;PMS_P2;Temp;Humidity;BMP_temperature;BMP_pressure;BME280_temperature;BME280_humidity;BME280_pressure;Samples;Min_cycle;Max_cycle;Signal;HPM_P1;HPM_P2
2022/06/19 00:00:30;;;;;;;9.57;3.72;;;;;;;;;;4853442;29;20046;-60
2022/06/19 00:02:56;;;;;;;5.55;3.50;;;;;;;;;;4857751;29;20052;-60
2022/06/19 00:05:21;;;;;;;6.22;3.35;;;;;;;;;;4858557;29;20041;-60
2022/06/19 00:07:47;;;;;;;7.05;3.30;;;;;;;;;;4858024;29;20037;-60
2022/06/19 00:10:13;;;;;;;11.27;3.75;;;;;;;;;;4858933;29;20379;-60
2022/06/19 00:12:39;;;;;;;7.78;3.17;;;;;;;;;;4858265;29;20037;-60
2022/06/19 00:15:05;;;;;;;7.53;3.50;;;;;;;;;;4853960;29;20050;-58
2022/06/19 00:17:31;;;;;;;5.13;3.33;;;;;;;;;;4870496;29;20037;-60
2022/06/19 00:19:56;;;;;;;4.47;3.10;;;;;;;;;;4856903;29;20037;-60
2022/06/19 00:22:22;;;;;;;6.13;3.50;;;;;;;;;;4858786;29;20117;-60
2022/06/19 00:24:47;;;;;;;5.60;3.33;;;;;;;;;;4858767;29;20395;-60
2022/06/19 00:27:13;;;;;;;8.07;3.42;;;;;;;;;;4850713;29;20124;-60
2022/06/19 00:29:38;;;;;;;6.63;2.95;;;;;;;;;;4851684;29;20386;-60
2022/06/19 00:32:07;;;;;;;5.13;3.08;;;;;;;;;;4858754;29;20387;-61
2022/06/19 00:34:34;;;;;;;10.45;3.20;;;;;;;;;;4857537;29;20038;-61
2022/06/19 00:37:01;;;;;;;6.07;3.17;;;;;;;;;;4856061;29;20390;-61
2022/06/19 00:39:28;;;;;;;7.60;3.00;;;;;;;;;;4858850;29;20041;-60
2022/06/19 00:41:53;;;;;;;5.03;3.30;;;;;;;;;;4858219;29;20471;-60
2022/06/19 00:44:19;;;;;;;4.00;2.85;;;;;;;;;;4858406;29;20041;-60
2022/06/19 00:46:47;;;;;;;7.57;3.00;;;;;;;;;;4857966;29;20037;-60
2022/06/19 00:49:27;;;;;;;6.93;3.25;;;;;;;;;;4857933;29;20033;-59
2022/06/19 00:52:17;;;;;;;6.78;2.90;;;;;;;;;;4857821;29;20057;-60
2022/06/19 00:54:46;;;;;;;5.63;3.20;;;;;;;;;;4856411;29;20383;-60
2022/06/19 00:57:13;;;;;;;5.57;3.03;;;;;;;;;;4857504;29;20128;-60
2022/06/19 00:59:44;;;;;;;7.50;3.33;;;;;;;;;;4861484;29;20276;-60
2022/06/19 01:02:09;;;;;;;7.00;3.35;;;;;;;;;;4858348;29;20045;-60
2022/06/19 01:04:41;;;;;;;7.18;3.08;;;;;;;;;;4862300;29;20048;-60
2022/06/19 01:07:07;;;;;;;6.35;3.00;;;;;;;;;;4860159;29;20264;-60
2022/06/19 01:09:32;;;;;;;6.40;3.00;;;;;;;;;;4861417;29;20482;-59
2022/06/19 01:12:01;;;;;;;6.47;3.20;;;;;;;;;;4860616;29;20045;-60
2022/06/19 01:14:27;;;;;;;5.80;3.10;;;;;;;;;;4858865;29;20052;-60
2022/06/19 01:16:53;;;;;;;7.65;3.40;;;;;;;;;;4861314;29;20092;-59
2022/06/19 01:19:31;;;;;;;6.63;3.60;;;;;;;;;;4858768;29;20033;-60
2022/06/19 01:22:09;;;;;;;4.78;3.22;;;;;;;;;;4854690;29;20536;-60
2022/06/19 01:24:40;;;;;;;6.95;3.00;;;;;;;;;;4856772;29;20064;-60
2022/06/19 01:27:08;;;;;;;;;;;;;;;;;;4856447;29;20513;-60
2022/06/19 01:29:34;;;;;;;6.03;3.20;;;;;;;;;;4859985;29;20449;-59
2022/06/19 01:32:03;;;;;;;7.72;3.20;;;;;;;;;;4859598;29;20029;-59
2022/06/19 01:34:35;;;;;;;8.82;3.00;;;;;;;;;;4861173;29;20061;-59
2022/06/19 01:37:21;;;;;;;8.40;3.10;;;;;;;;;;4859942;29;20033;-60
2022/06/19 01:39:51;;;;;;;5.38;3.00;;;;;;;;;;4858912;29;20415;-59
2022/06/19 01:42:17;;;;;;;6.27;3.10;;;;;;;;;;4858051;29;20475;-59
2022/06/19 01:44:45;;;;;;;6.43;3.17;;;;;;;;;;4858916;29;20041;-59
2022/06/19 01:47:12;;;;;;;5.03;2.80;;;;;;;;;;4860855;29;20034;-60
2022/06/19 01:49:41;;;;;;;5.97;3.20;;;;;;;;;;4860605;29;20045;-60
2022/06/19 01:52:07;;;;;;;6.00;3.33;;;;;;;;;;4859354;29;20062;-60
2022/06/19 01:54:42;;;;;;;8.80;3.20;;;;;;;;;;4850100;29;20056;-60
2022/06/19 01:57:10;;;;;;;5.10;3.30;;;;;;;;;;4855234;29;20359;-60
2022/06/19 01:59:40;;;;;;;8.32;2.97;;;;;;;;;;4861528;29;20037;-59
2022/06/19 02:02:07;;;;;;;6.73;3.13;;;;;;;;;;4856222;29;20578;-60
2022/06/19 02:04:33;;;;;;;8.63;3.40;;;;;;;;;;4860618;29;20356;-60
2022/06/19 02:07:03;;;;;;;6.75;3.33;;;;;;;;;;4859365;29;20136;-59
2022/06/19 02:09:29;;;;;;;6.13;3.00;;;;;;;;;;4860051;29;20033;-59
2022/06/19 02:11:57;;;;;;;6.00;2.90;;;;;;;;;;4858591;29;20029;-59
2022/06/19 02:14:23;;;;;;;4.63;2.72;;;;;;;;;;4860278;29;20048;-60
2022/06/19 02:16:50;;;;;;;9.60;3.20;;;;;;;;;;4859851;29;20060;-59
2022/06/19 02:19:16;;;;;;;5.22;2.88;;;;;;;;;;4861104;29;20044;-60
2022/06/19 02:21:52;;;;;;;6.70;3.00;;;;;;;;;;4859281;29;20045;-59
2022/06/19 02:24:20;;;;;;;5.43;2.85;;;;;;;;;;4861180;29;20049;-60
2022/06/19 02:26:48;;;;;;;5.95;2.90;;;;;;;;;;4859381;29;20380;-60
2022/06/19 02:29:16;;;;;;;6.32;2.90;;;;;;;;;;4860647;29;20044;-60
2022/06/19 02:31:44;;;;;;;5.72;2.78;;;;;;;;;;4858793;29;20406;-59
2022/06/19 02:34:33;;;;;;;5.20;3.05;;;;;;;;;;4860908;29;20037;-60
2022/06/19 02:37:12;;;;;;;4.38;2.58;;;;;;;;;;4854204;29;20424;-59
2022/06/19 02:39:58;;;;;;;4.40;2.78;;;;;;;;;;4860591;29;20135;-59
2022/06/19 02:42:37;;;;;;;9.27;2.83;;;;;;;;;;4856915;29;20403;-60
2022/06/19 02:45:12;;;;;;;6.90;2.40;;;;;;;;;;4852544;29;20068;-59
2022/06/19 02:47:38;;;;;;;6.15;2.60;;;;;;;;;;4861110;29;20089;-60
2022/06/19 02:50:06;;;;;;;11.07;2.60;;;;;;;;;;4858156;29;20037;-59
2022/06/19 02:52:32;;;;;;;4.55;2.70;;;;;;;;;;4854863;29;20041;-59
2022/06/19 02:54:57;;;;;;;4.32;2.50;;;;;;;;;;4860544;29;20045;-59
2022/06/19 02:57:24;;;;;;;4.95;2.40;;;;;;;;;;4860046;29;20034;-59
2022/06/19 02:59:49;;;;;;;4.88;2.40;;;;;;;;;;4859021;29;20052;-59
2022/06/19 03:02:15;;;;;;;8.70;2.50;;;;;;;;;;4855535;29;20089;-60
2022/06/19 03:04:46;;;;;;;3.70;2.17;;;;;;;;;;4857294;29;20040;-59
2022/06/19 03:07:12;;;;;;;7.80;2.78;;;;;;;;;;4856817;29;20181;-59
2022/06/19 03:09:37;;;;;;;5.38;2.50;;;;;;;;;;4860485;29;20116;-59
2022/06/19 03:12:03;;;;;;;4.68;2.40;;;;;;;;;;4858115;29;20030;-59
2022/06/19 03:14:28;;;;;;;5.70;2.70;;;;;;;;;;4859417;29;20090;-59
2022/06/19 03:16:54;;;;;;;5.22;2.60;;;;;;;;;;4858091;29;20120;-59
2022/06/19 03:19:19;;;;;;;4.95;2.22;;;;;;;;;;4859049;29;20501;-59
2022/06/19 03:21:45;;;;;;;5.80;2.42;;;;;;;;;;4860648;29;20026;-59
2022/06/19 03:24:10;;;;;;;7.78;2.60;;;;;;;;;;4857698;29;20105;-59
2022/06/19 03:26:36;;;;;;;6.40;2.45;;;;;;;;;;4859648;29;20048;-59
2022/06/19 03:29:02;;;;;;;5.97;2.40;;;;;;;;;;4860322;29;20041;-59
2022/06/19 03:31:29;;;;;;;5.93;2.42;;;;;;;;;;4858199;29;20845;-59
2022/06/19 03:33:55;;;;;;;8.65;2.40;;;;;;;;;;4858568;29;20101;-59
2022/06/19 03:36:21;;;;;;;8.55;2.55;;;;;;;;;;4857845;29;20383;-59
2022/06/19 03:38:47;;;;;;;8.80;2.40;;;;;;;;;;4858893;29;20033;-59
2022/06/19 03:41:13;;;;;;;8.18;2.85;;;;;;;;;;4858222;29;20033;-60
2022/06/19 03:43:38;;;;;;;6.45;2.40;;;;;;;;;;4860382;29;20045;-59
2022/06/19 03:46:12;;;;;;;8.63;2.85;;;;;;;;;;4853265;29;20033;-59
2022/06/19 03:48:39;;;;;;;9.05;2.55;;;;;;;;;;4857035;29;20034;-59
2022/06/19 03:51:04;;;;;;;10.20;2.67;;;;;;;;;;4859539;29;20113;-59
2022/06/19 03:53:29;;;;;;;8.20;2.33;;;;;;;;;;4857222;29;20112;-59
2022/06/19 03:55:55;;;;;;;8.65;2.33;;;;;;;;;;4860653;29;20364;-59
2022/06/19 03:58:20;;;;;;;11.38;2.88;;;;;;;;;;4855854;29;20037;-59
2022/06/19 04:00:45;;;;;;;9.80;2.40;;;;;;;;;;4858744;29;20057;-59
2022/06/19 04:03:11;;;;;;;7.90;2.60;;;;;;;;;;4857121;29;20057;-59
2022/06/19 04:05:36;;;;;;;9.20;2.47;;;;;;;;;;4859301;29;20081;-59
2022/06/19 04:08:02;;;;;;;7.55;2.22;;;;;;;;;;4857075;29;20045;-59
2022/06/19 04:10:28;;;;;;;11.55;2.70;;;;;;;;;;4857049;29;20394;-59
2022/06/19 04:12:53;;;;;;;9.63;2.22;;;;;;;;;;4856941;29;20085;-60
2022/06/19 04:15:19;;;;;;;12.57;2.53;;;;;;;;;;4857414;29;20116;-59
2022/06/19 04:17:44;;;;;;;13.35;2.35;;;;;;;;;;4858055;29;20218;-59
2022/06/19 04:20:11;;;;;;;7.78;2.35;;;;;;;;;;4856785;29;20090;-59
2022/06/19 04:22:37;;;;;;;10.57;2.97;;;;;;;;;;4858106;29;20041;-60
2022/06/19 04:25:13;;;;;;;10.13;2.30;;;;;;;;;;4856366;29;20037;-59
2022/06/19 04:27:40;;;;;;;10.05;2.25;;;;;;;;;;4858747;29;20060;-59
2022/06/19 04:30:06;;;;;;;12.00;2.65;;;;;;;;;;4858686;29;20033;-59
2022/06/19 04:32:31;;;;;;;10.52;2.25;;;;;;;;;;4858811;29;20132;-59
2022/06/19 04:34:57;;;;;;;12.55;2.80;;;;;;;;;;4858947;29;20065;-58
2022/06/19 04:37:22;;;;;;;10.05;2.40;;;;;;;;;;4857982;29;20037;-59
2022/06/19 04:39:47;;;;;;;19.38;2.88;;;;;;;;;;4858802;29;20033;-59
2022/06/19 04:42:13;;;;;;;13.52;2.60;;;;;;;;;;4854273;29;20432;-59
2022/06/19 04:44:38;;;;;;;10.63;2.40;;;;;;;;;;4853865;29;20585;-59
2022/06/19 04:47:05;;;;;;;11.60;2.60;;;;;;;;;;4856898;29;20041;-59
2022/06/19 04:49:30;;;;;;;12.57;2.75;;;;;;;;;;4856264;29;20412;-59
2022/06/19 04:51:55;;;;;;;10.25;2.40;;;;;;;;;;4857581;29;20089;-59
2022/06/19 04:54:21;;;;;;;12.40;2.30;;;;;;;;;;4858547;29;20061;-59
2022/06/19 04:56:46;;;;;;;8.88;2.28;;;;;;;;;;4856840;29;20033;-59
2022/06/19 04:59:11;;;;;;;10.60;2.50;;;;;;;;;;4855024;29;20049;-59
2022/06/19 05:01:38;;;;;;;12.45;2.28;;;;;;;;;;4857075;29;20133;-59
2022/06/19 05:04:08;;;;;;;10.10;2.28;;;;;;;;;;4859127;29;20034;-59
2022/06/19 05:06:34;;;;;;;10.50;2.63;;;;;;;;;;4852411;29;20927;-60
2022/06/19 05:09:00;;;;;;;10.98;2.58;;;;;;;;;;4855509;29;20045;-59
2022/06/19 05:11:27;;;;;;;11.82;2.20;;;;;;;;;;4856476;29;20037;-60
2022/06/19 05:13:53;;;;;;;17.75;2.20;;;;;;;;;;4858356;29;20070;-59
2022/06/19 05:16:21;;;;;;;10.38;2.17;;;;;;;;;;4853671;29;20045;-60
2022/06/19 05:18:48;;;;;;;13.20;2.15;;;;;;;;;;4856820;29;20383;-60
2022/06/19 05:21:13;;;;;;;10.80;2.30;;;;;;;;;;4858322;29;20033;-60
2022/06/19 05:23:41;;;;;;;11.93;2.10;;;;;;;;;;4855303;29;20044;-60
2022/06/19 05:26:11;;;;;;;13.90;2.47;;;;;;;;;;4859255;29;20036;-60
2022/06/19 05:28:37;;;;;;;10.20;2.15;;;;;;;;;;4855463;29;20125;-60
2022/06/19 05:31:03;;;;;;;10.27;1.90;;;;;;;;;;4859350;29;20076;-63
2022/06/19 05:33:31;;;;;;;10.57;1.90;;;;;;;;;;4857546;29;20121;-59
2022/06/19 05:35:57;;;;;;;10.57;2.30;;;;;;;;;;4859113;29;20040;-59
2022/06/19 05:38:23;;;;;;;10.52;2.10;;;;;;;;;;4855779;29;20038;-59
2022/06/19 05:40:53;;;;;;;7.93;1.98;;;;;;;;;;4856251;29;20034;-60
2022/06/19 05:43:20;;;;;;;10.88;2.40;;;;;;;;;;4860190;29;20033;-60
2022/06/19 05:45:53;;;;;;;14.88;2.40;;;;;;;;;;4859631;29;20071;-59
2022/06/19 05:48:19;;;;;;;11.48;2.20;;;;;;;;;;4854904;29;20116;-61
2022/06/19 05:50:55;;;;;;;12.93;2.35;;;;;;;;;;4861340;29;20038;-60
2022/06/19 05:53:20;;;;;;;11.18;2.30;;;;;;;;;;4848513;29;20041;-60
2022/06/19 05:55:46;;;;;;;11.65;2.15;;;;;;;;;;4860379;29;20037;-60
2022/06/19 05:58:11;;;;;;;7.50;2.33;;;;;;;;;;4860947;29;20056;-60
2022/06/19 06:00:36;;;;;;;14.70;2.55;;;;;;;;;;4857991;29;20033;-60
2022/06/19 06:03:02;;;;;;;9.38;2.00;;;;;;;;;;4860850;29;20514;-59
2022/06/19 06:05:27;;;;;;;9.23;2.15;;;;;;;;;;4860454;29;20162;-60
2022/06/19 06:07:53;;;;;;;11.88;2.60;;;;;;;;;;4859069;29;20089;-60
2022/06/19 06:10:18;;;;;;;12.75;2.33;;;;;;;;;;4861445;29;20056;-60
2022/06/19 06:12:44;;;;;;;11.63;1.90;;;;;;;;;;4859408;29;20044;-61
2022/06/19 06:15:10;;;;;;;10.77;2.17;;;;;;;;;;4861866;29;20036;-59
2022/06/19 06:17:36;;;;;;;11.25;2.13;;;;;;;;;;4857583;29;20049;-59
2022/06/19 06:20:03;;;;;;;13.90;2.40;;;;;;;;;;4860371;29;20046;-59
2022/06/19 06:22:28;;;;;;;11.90;2.10;;;;;;;;;;4860163;29;20498;-60
2022/06/19 06:24:53;;;;;;;13.52;2.17;;;;;;;;;;4865941;29;20048;-61
2022/06/19 06:27:19;;;;;;;11.50;2.10;;;;;;;;;;4860222;29;20494;-59
2022/06/19 06:29:44;;;;;;;11.85;2.40;;;;;;;;;;4860000;29;20044;-60
2022/06/19 06:32:09;;;;;;;9.68;2.30;;;;;;;;;;4861307;29;20030;-59
2022/06/19 06:34:35;;;;;;;11.02;2.60;;;;;;;;;;4859616;29;20111;-59
2022/06/19 06:37:00;;;;;;;12.70;2.33;;;;;;;;;;4861030;29;20048;-59
2022/06/19 06:39:26;;;;;;;8.93;2.15;;;;;;;;;;4859285;29;20049;-59
2022/06/19 06:41:51;;;;;;;8.60;2.35;;;;;;;;;;4861013;29;20046;-60
2022/06/19 06:44:16;;;;;;;10.25;2.40;;;;;;;;;;4861452;29;20053;-60
2022/06/19 06:46:42;;;;;;;10.05;2.60;;;;;;;;;;4860060;29;20041;-60
2022/06/19 06:49:08;;;;;;;9.07;2.20;;;;;;;;;;4858738;29;20109;-60
2022/06/19 06:51:34;;;;;;;8.07;2.08;;;;;;;;;;4858562;29;20041;-59
2022/06/19 06:54:00;;;;;;;13.50;2.85;;;;;;;;;;4860449;29;20026;-59
2022/06/19 06:56:29;;;;;;;14.45;2.42;;;;;;;;;;4856252;29;20042;-60
2022/06/19 06:58:54;;;;;;;9.55;2.55;;;;;;;;;;4859306;29;20041;-60
2022/06/19 07:01:22;;;;;;;9.55;2.50;;;;;;;;;;4860557;29;20057;-60
2022/06/19 07:03:54;;;;;;;9.52;2.25;;;;;;;;;;4860119;29;20048;-59
2022/06/19 07:06:20;;;;;;;11.98;2.65;;;;;;;;;;4858396;29;20359;-60
2022/06/19 07:08:46;;;;;;;9.77;2.60;;;;;;;;;;4859603;29;20053;-60
2022/06/19 07:11:21;;;;;;;12.95;2.50;;;;;;;;;;4860191;29;20048;-59
2022/06/19 07:13:47;;;;;;;15.82;2.97;;;;;;;;;;4856999;29;20044;-59
2022/06/19 07:16:12;;;;;;;10.93;2.40;;;;;;;;;;4859245;29;20379;-58
2022/06/19 07:18:38;;;;;;;11.32;2.65;;;;;;;;;;4860780;29;20033;-59
2022/06/19 07:21:03;;;;;;;11.75;2.70;;;;;;;;;;4858165;29;20038;-60
2022/06/19 07:23:29;;;;;;;12.20;2.80;;;;;;;;;;4857812;29;20162;-60
2022/06/19 07:25:54;;;;;;;13.40;3.05;;;;;;;;;;4858183;29;20055;-60
2022/06/19 07:28:20;;;;;;;10.15;2.50;;;;;;;;;;4859865;29;20545;-60
2022/06/19 07:30:46;;;;;;;15.00;2.80;;;;;;;;;;4859296;29;20057;-60
2022/06/19 07:33:12;;;;;;;9.75;2.72;;;;;;;;;;4859092;29;20425;-60
2022/06/19 07:35:37;;;;;;;11.93;2.47;;;;;;;;;;4856918;29;20087;-61
2022/06/19 07:38:03;;;;;;;14.10;3.03;;;;;;;;;;4859641;29;20495;-59
2022/06/19 07:40:28;;;;;;;10.07;2.40;;;;;;;;;;4857721;29;20041;-61
2022/06/19 07:42:54;;;;;;;11.82;2.72;;;;;;;;;;4859899;29;20026;-60
2022/06/19 07:45:19;;;;;;;8.75;2.30;;;;;;;;;;4859582;29;20033;-60
2022/06/19 07:50:30;;;;;;;9.43;2.35;;;;;;;;;;4820885;29;20089;-60
2022/06/19 07:52:56;;;;;;;14.27;2.60;;;;;;;;;;4854903;29;20025;-60
2022/06/19 07:55:25;;;;;;;13.18;2.30;;;;;;;;;;4860163;29;20041;-60
2022/06/19 07:57:51;;;;;;;11.85;2.80;;;;;;;;;;4857529;29;20193;-60
2022/06/19 08:00:21;;;;;;;9.13;2.67;;;;;;;;;;4859513;29;20112;-60
2022/06/19 08:02:49;;;;;;;10.20;2.67;;;;;;;;;;4857047;29;20053;-60
2022/06/19 08:05:15;;;;;;;7.93;2.58;;;;;;;;;;4859235;29;20034;-60
2022/06/19 08:07:41;;;;;;;10.07;2.33;;;;;;;;;;4854609;29;20037;-60
2022/06/19 08:10:09;;;;;;;10.25;2.72;;;;;;;;;;4856776;29;20611;-60
2022/06/19 08:12:35;;;;;;;12.02;2.65;;;;;;;;;;4856120;29;20034;-63
2022/06/19 08:15:00;;;;;;;9.93;2.40;;;;;;;;;;4854358;29;20037;-60
2022/06/19 08:17:26;;;;;;;9.32;2.28;;;;;;;;;;4857197;29;20037;-60
2022/06/19 08:19:51;;;;;;;11.38;2.63;;;;;;;;;;4856668;29;20041;-60
2022/06/19 08:22:17;;;;;;;12.63;2.70;;;;;;;;;;4858581;29;20033;-59
2022/06/19 08:24:43;;;;;;;12.93;2.97;;;;;;;;;;4858485;29;20047;-60
2022/06/19 08:27:08;;;;;;;15.10;2.88;;;;;;;;;;4844525;29;20033;-60
2022/06/19 08:29:35;;;;;;;9.60;2.42;;;;;;;;;;4858341;29;20124;-60
2022/06/19 08:32:01;;;;;;;12.40;2.50;;;;;;;;;;4859677;29;20094;-60
2022/06/19 08:34:27;;;;;;;8.57;2.40;;;;;;;;;;4858078;29;20048;-60
2022/06/19 08:36:54;;;;;;;12.98;2.63;;;;;;;;;;4856973;29;20074;-60
2022/06/19 08:39:20;;;;;;;9.45;2.25;;;;;;;;;;4858025;29;20077;-61
2022/06/19 08:41:55;;;;;;;10.68;2.72;;;;;;;;;;4871518;29;20038;-60
2022/06/19 08:44:34;;;;;;;13.32;2.63;;;;;;;;;;4857447;29;21283;-60
2022/06/19 08:47:18;;;;;;;10.23;2.35;;;;;;;;;;4858324;29;20052;-60
2022/06/19 08:49:55;;;;;;;9.65;2.40;;;;;;;;;;4856501;29;20941;-61
2022/06/19 08:52:47;;;;;;;11.98;2.45;;;;;;;;;;4857417;29;20359;-60
2022/06/19 08:55:34;;;;;;;11.02;2.72;;;;;;;;;;4851619;29;20033;-57
2022/06/19 08:58:05;;;;;;;7.72;2.25;;;;;;;;;;4857470;29;20041;-56
2022/06/19 09:00:44;;;;;;;10.52;2.70;;;;;;;;;;4857148;29;20124;-60
2022/06/19 09:03:28;;;;;;;9.43;2.40;;;;;;;;;;4857093;29;20049;-58
2022/06/19 09:06:18;;;;;;;11.82;2.35;;;;;;;;;;4858102;29;20042;-56
2022/06/19 09:09:09;;;;;;;11.97;2.40;;;;;;;;;;4828863;29;20069;-58
2022/06/19 09:11:37;;;;;;;;;;;;;;;;;;4861498;29;20288;-58
2022/06/19 09:14:27;;;;;;;10.15;2.38;;;;;;;;;;4858023;29;20456;-62
2022/06/19 09:17:11;;;;;;;9.73;2.47;;;;;;;;;;4849621;29;20491;-59
2022/06/19 09:19:56;;;;;;;13.75;2.47;;;;;;;;;;4858253;29;20125;-58
2022/06/19 09:23:06;;;;;;;9.43;2.40;;;;;;;;;;4861915;29;20052;-57
2022/06/19 09:25:53;;;;;;;8.85;2.58;;;;;;;;;;4852253;29;20491;-60
2022/06/19 09:28:43;;;;;;;10.35;2.35;;;;;;;;;;4864207;29;20028;-59
2022/06/19 09:31:17;;;;;;;11.63;3.25;;;;;;;;;;4861216;29;20162;-57
2022/06/19 09:34:22;;;;;;;11.27;2.75;;;;;;;;;;4861846;29;20038;-58
2022/06/19 09:37:07;;;;;;;11.13;3.15;;;;;;;;;;4849523;29;20049;-57
2022/06/19 09:39:49;;;;;;;10.98;2.50;;;;;;;;;;4861243;29;20200;-60
2022/06/19 09:42:26;;;;;;;8.52;2.38;;;;;;;;;;4860460;29;20501;-58
2022/06/19 09:44:58;;;;;;;8.20;2.42;;;;;;;;;;4861577;29;20056;-57
2022/06/19 09:47:29;;;;;;;11.65;2.90;;;;;;;;;;4860356;29;20037;-58
2022/06/19 09:50:19;;;;;;;10.07;2.70;;;;;;;;;;4860629;29;20133;-57
2022/06/19 09:53:09;;;;;;;10.30;3.00;;;;;;;;;;4860165;29;20038;-57
2022/06/19 09:55:43;;;;;;;9.88;2.75;;;;;;;;;;4860849;29;20460;-57
2022/06/19 09:58:23;;;;;;;11.70;2.50;;;;;;;;;;4864045;29;20086;-55
2022/06/19 10:00:51;;;;;;;10.05;2.85;;;;;;;;;;4841559;29;20069;-60
2022/06/19 10:03:23;;;;;;;10.35;2.85;;;;;;;;;;4855145;29;20094;-58
2022/06/19 10:05:57;;;;;;;13.85;3.08;;;;;;;;;;4855928;29;20093;-58
2022/06/19 10:08:36;;;;;;;11.52;2.63;;;;;;;;;;4861084;29;20045;-55
2022/06/19 10:11:06;;;;;;;9.35;2.60;;;;;;;;;;4860087;29;20044;-56
2022/06/19 10:13:55;;;;;;;9.68;2.65;;;;;;;;;;4861705;29;20041;-59
2022/06/19 10:16:31;;;;;;;10.55;2.50;;;;;;;;;;4847915;29;20074;-57
2022/06/19 10:18:59;;;;;;;9.60;2.20;;;;;;;;;;4857558;29;20455;-55
2022/06/19 10:24:54;;;;;;;9.55;2.67;;;;;;;;;;4843508;29;20101;-56
2022/06/19 10:27:31;;;;;;;8.75;2.70;;;;;;;;;;4854135;29;20052;-56
2022/06/19 10:30:05;;;;;;;9.45;2.30;;;;;;;;;;4858112;29;20120;-55
2022/06/19 10:32:56;;;;;;;11.40;2.75;;;;;;;;;;4859619;29;20162;-54
2022/06/19 10:35:37;;;;;;;12.73;2.95;;;;;;;;;;4861055;29;20101;-53
2022/06/19 10:38:22;;;;;;;10.85;2.65;;;;;;;;;;4859594;29;20037;-55
2022/06/19 10:41:08;;;;;;;9.27;2.72;;;;;;;;;;4858360;29;20045;-56
2022/06/19 10:43:55;;;;;;;9.10;2.95;;;;;;;;;;4857483;29;20034;-58
2022/06/19 10:46:24;;;;;;;11.80;2.80;;;;;;;;;;4846898;29;20041;-55
2022/06/19 10:49:17;;;;;;;13.57;3.08;;;;;;;;;;4843250;29;20042;-57
2022/06/19 10:51:48;;;;;;;10.93;2.85;;;;;;;;;;4859764;29;20723;-58
2022/06/19 10:54:35;;;;;;;11.40;2.90;;;;;;;;;;4856383;29;20033;-52
2022/06/19 10:57:09;;;;;;;13.60;3.08;;;;;;;;;;4859866;29;20033;-57
2022/06/19 10:59:35;;;;;;;7.78;2.35;;;;;;;;;;4855038;29;20037;-58
2022/06/19 11:04:59;;;;;;;12.77;2.50;;;;;;;;;;4859902;29;20521;-55
2022/06/19 11:07:26;;;;;;;12.85;3.03;;;;;;;;;;4858610;29;20041;-57
2022/06/19 11:09:58;;;;;;;9.02;3.08;;;;;;;;;;4857958;29;20042;-57
2022/06/19 11:12:40;;;;;;;10.82;2.85;;;;;;;;;;4858917;29;20060;-56
2022/06/19 11:15:11;;;;;;;10.77;2.83;;;;;;;;;;4860858;29;20037;-54
2022/06/19 11:17:41;;;;;;;10.88;3.00;;;;;;;;;;4857745;29;20037;-58
2022/06/19 11:20:29;;;;;;;15.10;5.40;;;;;;;;;;4860621;29;20037;-57
2022/06/19 11:23:15;;;;;;;9.85;3.00;;;;;;;;;;4857991;29;20068;-55
2022/06/19 11:25:42;;;;;;;15.75;3.33;;;;;;;;;;4854855;29;20440;-53
2022/06/19 11:28:17;;;;;;;12.10;3.00;;;;;;;;;;4855967;29;20061;-57
2022/06/19 11:30:52;;;;;;;9.98;3.10;;;;;;;;;;4857428;29;20033;-55
2022/06/19 11:33:28;;;;;;;11.90;2.95;;;;;;;;;;4859265;29;20121;-55
2022/06/19 11:35:57;;;;;;;10.73;3.00;;;;;;;;;;4859745;29;20089;-53
2022/06/19 11:38:44;;;;;;;10.88;2.78;;;;;;;;;;4859767;29;20073;-54
2022/06/19 11:41:30;;;;;;;13.75;2.78;;;;;;;;;;4857345;29;20041;-53
2022/06/19 11:44:11;;;;;;;8.50;2.88;;;;;;;;;;4863329;29;20149;-58
2022/06/19 11:46:52;;;;;;;12.32;3.17;;;;;;;;;;4855930;29;20042;-60
2022/06/19 11:49:26;;;;;;;10.88;2.88;;;;;;;;;;4859086;29;20045;-58
2022/06/19 11:51:53;;;;;;;9.52;2.70;;;;;;;;;;4858828;29;20030;-58
2022/06/19 11:54:27;;;;;;;10.63;3.00;;;;;;;;;;4857842;29;20064;-60
2022/06/19 11:56:53;;;;;;;11.48;3.00;;;;;;;;;;4856954;29;20102;-58
2022/06/19 11:59:44;;;;;;;11.57;3.30;;;;;;;;;;4860442;29;20042;-58
2022/06/19 12:02:30;;;;;;;13.23;2.90;;;;;;;;;;4858276;29;20045;-59
2022/06/19 12:05:00;;;;;;;11.90;3.10;;;;;;;;;;4855984;29;20050;-58
2022/06/19 12:07:34;;;;;;;12.23;3.28;;;;;;;;;;4858224;29;20036;-57
2022/06/19 12:10:07;;;;;;;9.63;2.78;;;;;;;;;;4857204;29;20045;-57
2022/06/19 12:12:34;;;;;;;12.80;2.90;;;;;;;;;;4856066;29;20049;-59
2022/06/19 12:15:27;;;;;;;11.65;2.83;;;;;;;;;;4858186;29;20378;-56
2022/06/19 12:18:02;;;;;;;12.82;3.05;;;;;;;;;;4858133;29;20077;-60
2022/06/19 12:20:32;;;;;;;11.20;3.13;;;;;;;;;;4857702;29;20042;-57
2022/06/19 12:23:17;;;;;;;10.52;2.70;;;;;;;;;;4857599;29;20042;-59
2022/06/19 12:25:48;;;;;;;12.45;2.83;;;;;;;;;;4840755;29;20045;-57
2022/06/19 12:28:50;;;;;;;10.48;3.00;;;;;;;;;;4844810;29;20049;-55
2022/06/19 12:31:21;;;;;;;9.75;2.58;;;;;;;;;;4859468;29;20047;-55
2022/06/19 12:33:52;;;;;;;11.80;3.10;;;;;;;;;;4858629;29;20031;-55
2022/06/19 12:36:27;;;;;;;9.88;2.83;;;;;;;;;;4854856;29;20435;-57
2022/06/19 12:38:52;;;;;;;10.90;3.10;;;;;;;;;;4856543;29;20048;-55
2022/06/19 12:41:39;;;;;;;10.50;3.05;;;;;;;;;;4857966;29;20030;-55
2022/06/19 12:44:24;;;;;;;11.95;3.10;;;;;;;;;;4859006;29;20041;-57
2022/06/19 12:47:18;;;;;;;9.32;3.10;;;;;;;;;;4855297;29;20149;-54
2022/06/19 12:50:17;;;;;;;12.10;3.20;;;;;;;;;;4872937;29;20049;-58
2022/06/19 12:53:07;;;;;;;12.48;3.38;;;;;;;;;;4851288;29;20048;-58
2022/06/19 12:55:54;;;;;;;;;;;;;;;;;;4861639;29;20112;-57
2022/06/19 12:58:25;;;;;;;8.20;2.85;;;;;;;;;;4862969;29;20400;-57
2022/06/19 13:00:58;;;;;;;10.55;3.10;;;;;;;;;;4861909;29;20034;-56
2022/06/19 13:03:36;;;;;;;12.95;2.95;;;;;;;;;;4863200;29;20045;-56
2022/06/19 13:06:33;;;;;;;9.13;3.05;;;;;;;;;;4860273;29;20033;-57
2022/06/19 13:09:07;;;;;;;10.93;2.95;;;;;;;;;;4876824;29;20127;-58
2022/06/19 13:12:05;;;;;;;9.20;2.80;;;;;;;;;;4854592;29;20133;-55
2022/06/19 13:15:00;;;;;;;8.98;2.78;;;;;;;;;;4858100;29;20041;-54
2022/06/19 13:17:38;;;;;;;10.18;2.75;;;;;;;;;;4863183;29;20076;-56
2022/06/19 13:20:17;;;;;;;7.95;2.40;;;;;;;;;;4859277;29;20084;-54
2022/06/19 13:23:11;;;;;;;9.80;3.03;;;;;;;;;;4861612;29;20112;-59
2022/06/19 13:25:58;;;;;;;10.57;2.70;;;;;;;;;;4845455;29;20054;-57
2022/06/19 13:28:34;;;;;;;12.02;2.90;;;;;;;;;;4861712;29;20121;-54
2022/06/19 13:31:18;;;;;;;11.27;2.90;;;;;;;;;;4861648;29;20061;-57
2022/06/19 13:34:04;;;;;;;10.32;2.78;;;;;;;;;;4859920;29;20044;-57
2022/06/19 13:36:58;;;;;;;8.73;2.55;;;;;;;;;;4850843;29;20053;-56
2022/06/19 13:39:39;;;;;;;10.27;2.78;;;;;;;;;;4842643;29;20490;-56
2022/06/19 13:42:27;;;;;;;7.95;2.58;;;;;;;;;;4858132;29;20228;-56
2022/06/19 13:44:52;;;;;;;8.70;2.70;;;;;;;;;;4861300;29;20038;-56
2022/06/19 13:47:29;;;;;;;8.88;2.78;;;;;;;;;;4861369;29;20096;-56
2022/06/19 13:50:00;;;;;;;7.13;2.72;;;;;;;;;;4860080;29;20089;-55
2022/06/19 13:52:31;;;;;;;;;;;;;;;;;;4861291;29;20471;-58
2022/06/19 13:55:23;;;;;;;8.13;2.40;;;;;;;;;;4861656;29;19912;-57
2022/06/19 13:58:12;;;;;;;9.85;2.70;;;;;;;;;;4851865;29;20132;-56
2022/06/19 14:01:00;;;;;;;9.35;2.95;;;;;;;;;;4861594;29;20033;-56
2022/06/19 14:06:39;;;;;;;9.63;3.08;;;;;;;;;;4861758;29;20081;-57
2022/06/19 14:09:24;;;;;;;6.72;2.40;;;;;;;;;;4861004;29;20033;-58
2022/06/19 14:12:05;;;;;;;7.72;2.42;;;;;;;;;;4860405;29;20088;-57
2022/06/19 14:14:43;;;;;;;9.18;2.45;;;;;;;;;;4861972;29;20101;-56
2022/06/19 14:17:27;;;;;;;8.20;2.47;;;;;;;;;;4859075;29;20121;-56
2022/06/19 14:20:07;;;;;;;9.40;2.38;;;;;;;;;;4861294;29;20517;-55
2022/06/19 14:22:43;;;;;;;7.70;2.55;;;;;;;;;;4860262;29;20041;-56
2022/06/19 14:25:46;;;;;;;8.25;2.40;;;;;;;;;;4859759;29;20116;-56
2022/06/19 14:28:22;;;;;;;9.55;2.47;;;;;;;;;;4838144;29;20059;-58
2022/06/19 14:30:51;;;;;;;9.07;2.30;;;;;;;;;;4850860;29;20029;-58
2022/06/19 14:33:44;;;;;;;8.90;2.25;;;;;;;;;;4860301;29;20109;-56
2022/06/19 14:36:12;;;;;;;6.68;2.30;;;;;;;;;;4847251;29;20033;-53
2022/06/19 14:38:37;;;;;;;6.97;2.03;;;;;;;;;;4860662;29;20038;-56
2022/06/19 14:41:09;;;;;;;6.28;2.45;;;;;;;;;;4857096;29;20539;-56
2022/06/19 14:43:39;;;;;;;6.45;2.05;;;;;;;;;;4861399;29;20033;-56
2022/06/19 14:46:04;;;;;;;7.32;2.03;;;;;;;;;;4859428;29;20046;-57
2022/06/19 14:48:59;;;;;;;7.18;1.88;;;;;;;;;;4860412;29;20042;-57
2022/06/19 14:52:01;;;;;;;8.75;2.22;;;;;;;;;;4825755;29;20089;-57
2022/06/19 14:54:38;;;;;;;7.93;2.20;;;;;;;;;;4874127;29;20033;-57
2022/06/19 14:57:27;;;;;;;10.20;2.20;;;;;;;;;;4860511;29;20045;-58
2022/06/19 14:59:55;;;;;;;6.35;1.92;;;;;;;;;;4851048;29;20041;-59
2022/06/19 15:02:25;;;;;;;9.48;2.22;;;;;;;;;;4841616;29;20072;-57
2022/06/19 15:05:26;;;;;;;8.52;2.40;;;;;;;;;;4859430;29;20467;-59
2022/06/19 15:07:59;;;;;;;8.38;2.22;;;;;;;;;;4859305;29;20049;-59
2022/06/19 15:10:33;;;;;;;12.00;2.80;;;;;;;;;;4859491;29;20038;-59
2022/06/19 15:13:32;;;;;;;7.38;2.20;;;;;;;;;;4856227;29;20038;-57
2022/06/19 15:16:15;;;;;;;9.10;2.30;;;;;;;;;;4856828;29;20034;-57
2022/06/19 15:19:11;;;;;;;9.57;2.30;;;;;;;;;;4860025;29;20089;-57
2022/06/19 15:21:54;;;;;;;7.85;2.20;;;;;;;;;;4858708;29;20076;-56